createdAt,value
2016-06-15T00:00:25.690Z,23.55
2016-06-15T00:01:25.928Z,23.46
2016-06-15T00:02:25.603Z,23.46
2016-06-15T00:03:25.684Z,23.5
2016-06-15T00:04:25.984Z,23.48
2016-06-15T00:05:26.097Z,23.48
2016-06-15T00:06:25.709Z,23.47
2016-06-15T00:07:25.790Z,23.5
2016-06-15T00:08:25.778Z,23.55
2016-06-15T00:09:25.796Z,23.48
2016-06-15T00:10:25.628Z,23.48
2016-06-15T00:11:25.599Z,23.48
2016-06-15T00:12:25.650Z,23.48
2016-06-15T00:13:25.761Z,23.51
2016-06-15T00:14:25.750Z,23.54
2016-06-15T00:15:25.737Z,23.53
2016-06-15T00:16:25.803Z,23.53
2016-06-15T00:17:26.571Z,23.51
2016-06-15T00:18:25.871Z,23.42
2016-06-15T00:19:25.827Z,23.46
2016-06-15T00:20:26.518Z,23.51
2016-06-15T00:21:25.897Z,23.42
2016-06-15T00:22:25.727Z,23.47
2016-06-15T00:23:25.918Z,23.47
2016-06-15T00:24:25.780Z,23.5
2016-06-15T00:25:25.768Z,23.39
2016-06-15T00:26:25.754Z,23.42
2016-06-15T00:27:25.758Z,23.46
2016-06-15T00:28:25.776Z,23.4
2016-06-15T00:29:25.921Z,23.47
2016-06-15T00:30:25.845Z,23.43
2016-06-15T00:31:25.770Z,23.43
2016-06-15T00:32:25.805Z,23.46
2016-06-15T00:33:25.745Z,23.5
2016-06-15T00:34:25.889Z,23.51
2016-06-15T00:35:25.876Z,23.46
2016-06-15T00:36:25.958Z,23.51
2016-06-15T00:37:25.835Z,23.46
2016-06-15T00:38:25.807Z,23.46
2016-06-15T00:39:25.842Z,23.46
2016-06-15T00:40:25.923Z,23.43
2016-06-15T00:41:25.894Z,23.5
2016-06-15T00:42:25.929Z,23.5
2016-06-15T00:43:25.886Z,23.43
2016-06-15T00:44:25.967Z,23.5
2016-06-15T00:45:25.938Z,23.39
2016-06-15T00:46:25.957Z,23.39
2016-06-15T00:47:25.960Z,23.46
2016-06-15T00:48:26.026Z,23.38
2016-06-15T00:49:25.982Z,23.4
2016-06-15T00:50:26.203Z,23.4
2016-06-15T00:51:26.051Z,23.5
2016-06-15T00:52:25.944Z,23.39
2016-06-15T00:53:26.120Z,23.4
2016-06-15T00:54:26.045Z,23.42
2016-06-15T00:55:25.938Z,23.47
2016-06-15T00:56:26.066Z,23.43
2016-06-15T00:57:25.975Z,23.39
2016-06-15T00:58:26.025Z,23.39
2016-06-15T00:59:26.017Z,23.48
2016-06-15T01:00:26.120Z,23.38
2016-06-15T01:01:26.096Z,23.42
2016-06-15T01:02:26.135Z,23.36
2016-06-15T01:03:26.297Z,23.35
2016-06-15T01:04:26.235Z,23.47
2016-06-15T01:05:26.141Z,23.38
2016-06-15T01:06:26.220Z,23.39
2016-06-15T01:07:26.251Z,23.4
2016-06-15T01:08:26.432Z,23.42
2016-06-15T01:09:26.254Z,23.39
2016-06-15T01:10:26.276Z,23.46
2016-06-15T01:11:26.426Z,23.46
2016-06-15T01:12:27.683Z,23.42
2016-06-15T01:13:26.502Z,23.39
2016-06-15T01:14:26.334Z,23.47
2016-06-15T01:15:26.432Z,23.39
2016-06-15T01:16:26.359Z,23.39
2016-06-15T01:17:26.473Z,23.35
2016-06-15T01:18:26.384Z,23.35
2016-06-15T01:19:26.465Z,23.42
2016-06-15T01:20:26.391Z,23.39
2016-06-15T01:21:26.364Z,23.38
2016-06-15T01:22:26.618Z,23.39
2016-06-15T01:23:26.386Z,23.39
2016-06-15T01:24:26.311Z,23.36
2016-06-15T01:25:26.424Z,23.33
2016-06-15T01:26:26.536Z,23.39
2016-06-15T01:27:26.462Z,23.33
2016-06-15T01:28:26.542Z,23.36
2016-06-15T01:29:26.468Z,23.32
2016-06-15T01:30:26.610Z,23.38
2016-06-15T01:31:26.536Z,23.36
2016-06-15T01:32:26.476Z,23.32
2016-06-15T01:33:26.589Z,23.33
2016-06-15T01:34:26.482Z,23.33
2016-06-15T01:35:26.423Z,23.36
2016-06-15T01:36:26.503Z,23.39
2016-06-15T01:37:26.523Z,23.33
2016-06-15T01:38:26.307Z,23.4
2016-06-15T01:39:26.373Z,23.39
2016-06-15T01:40:26.595Z,23.35
2016-06-15T01:41:26.598Z,23.33
2016-06-15T01:42:26.554Z,23.32
2016-06-15T01:43:26.557Z,23.32
2016-06-15T01:44:26.561Z,23.33
2016-06-15T01:45:26.531Z,23.33
2016-06-15T01:46:26.659Z,23.32
2016-06-15T01:47:26.553Z,23.33
2016-06-15T01:48:26.651Z,23.33
2016-06-15T01:49:26.607Z,23.28
2016-06-15T01:50:27.001Z,23.38
2016-06-15T01:51:26.707Z,23.28
2016-06-15T01:52:26.741Z,23.28
2016-06-15T01:53:26.760Z,23.35
2016-06-15T01:54:26.747Z,23.23
2016-06-15T01:55:26.703Z,23.27
2016-06-15T01:56:26.644Z,23.31
2016-06-15T01:57:26.725Z,23.43
2016-06-15T01:58:26.587Z,23.33
2016-06-15T01:59:26.700Z,23.46
2016-06-15T02:00:26.594Z,23.4
2016-06-15T02:01:26.722Z,23.36
2016-06-15T02:02:26.522Z,23.28
2016-06-15T02:03:26.712Z,23.32
2016-06-15T02:04:26.747Z,23.32
2016-06-15T02:05:26.734Z,23.36
2016-06-15T02:06:26.815Z,23.38
2016-06-15T02:07:26.506Z,23.39
2016-06-15T02:08:26.727Z,23.38
2016-06-15T02:09:26.777Z,23.38
2016-06-15T02:10:26.718Z,23.38
2016-06-15T02:11:26.691Z,23.39
2016-06-15T02:12:26.725Z,23.36
2016-06-15T02:13:26.775Z,23.39
2016-06-15T02:14:26.731Z,23.4
2016-06-15T02:15:26.687Z,23.36
2016-06-15T02:16:26.846Z,23.39
2016-06-15T02:17:26.755Z,23.42
2016-06-15T02:18:26.758Z,23.38
2016-06-15T02:19:26.730Z,23.43
2016-06-15T02:20:27.014Z,23.42
2016-06-15T02:21:26.752Z,23.4
2016-06-15T02:22:26.803Z,23.42
2016-06-15T02:23:26.758Z,23.4
2016-06-15T02:24:26.777Z,23.36
2016-06-15T02:25:26.748Z,23.36
2016-06-15T02:26:26.829Z,23.36
2016-06-15T02:27:26.832Z,23.36
2016-06-15T02:28:26.868Z,23.4
2016-06-15T02:29:26.870Z,23.4
2016-06-15T02:30:26.889Z,23.36
2016-06-15T02:31:26.797Z,23.39
2016-06-15T02:32:26.848Z,23.38
2016-06-15T02:33:26.867Z,23.35
2016-06-15T02:34:26.792Z,23.35
2016-06-15T02:35:27.060Z,23.31
2016-06-15T02:36:26.813Z,23.36
2016-06-15T02:37:26.816Z,23.36
2016-06-15T02:38:26.851Z,23.39
2016-06-15T02:39:26.838Z,23.38
2016-06-15T02:40:26.841Z,23.4
2016-06-15T02:41:26.861Z,23.36
2016-06-15T02:42:26.863Z,23.35
2016-06-15T02:43:26.867Z,23.33
2016-06-15T02:44:26.932Z,23.35
2016-06-15T02:45:26.966Z,23.33
2016-06-15T02:46:26.923Z,23.4
2016-06-15T02:47:26.879Z,23.32
2016-06-15T02:48:26.897Z,23.28
2016-06-15T02:49:26.900Z,23.31
2016-06-15T02:50:26.920Z,23.33
2016-06-15T02:51:26.922Z,23.31
2016-06-15T02:52:26.926Z,23.32
2016-06-15T02:53:26.928Z,23.27
2016-06-15T02:54:26.932Z,23.28
2016-06-15T02:55:26.935Z,23.35
2016-06-15T02:56:26.938Z,23.32
2016-06-15T02:57:26.940Z,23.33
2016-06-15T02:58:26.960Z,23.38
2016-06-15T02:59:27.008Z,23.27
2016-06-15T03:00:27.012Z,23.31
2016-06-15T03:01:26.969Z,23.33
2016-06-15T03:02:26.988Z,23.31
2016-06-15T03:03:26.834Z,23.33
2016-06-15T03:04:26.978Z,23.28
2016-06-15T03:05:27.121Z,23.36
2016-06-15T03:06:26.844Z,23.36
2016-06-15T03:07:27.003Z,23.31
2016-06-15T03:08:27.022Z,23.31
2016-06-15T03:09:27.025Z,23.32
2016-06-15T03:10:27.027Z,23.32
2016-06-15T03:11:27.031Z,23.31
2016-06-15T03:12:26.878Z,23.32
2016-06-15T03:13:27.037Z,23.35
2016-06-15T03:14:26.899Z,23.36
2016-06-15T03:15:27.058Z,23.32
2016-06-15T03:16:27.077Z,23.35
2016-06-15T03:17:27.081Z,23.35
2016-06-15T03:18:27.067Z,23.4
2016-06-15T03:19:27.086Z,23.36
2016-06-15T03:20:27.089Z,23.31
2016-06-15T03:21:27.092Z,23.32
2016-06-15T03:22:27.095Z,23.35
2016-06-15T03:23:27.099Z,23.27
2016-06-15T03:24:27.101Z,23.31
2016-06-15T03:25:27.121Z,23.38
2016-06-15T03:26:27.124Z,23.23
2016-06-15T03:27:27.189Z,23.27
2016-06-15T03:36:32.780Z,23.33
2016-06-15T03:37:32.564Z,23.25
2016-06-15T03:38:32.583Z,23.31
2016-06-15T03:39:32.586Z,23.25
2016-06-15T03:40:32.589Z,23.32
2016-06-15T03:41:32.592Z,23.23
2016-06-15T03:42:32.595Z,23.35
2016-06-15T03:43:32.598Z,23.35
2016-06-15T03:44:32.616Z,23.36
2016-06-15T03:45:32.620Z,23.33
2016-06-15T03:46:32.622Z,23.35
2016-06-15T03:47:32.626Z,23.33
2016-06-15T03:48:32.644Z,23.33
2016-06-15T03:49:32.648Z,23.25
2016-06-15T03:50:32.650Z,23.36
2016-06-15T03:51:32.498Z,23.36
2016-06-15T03:52:32.656Z,23.25
2016-06-15T03:53:32.660Z,23.32
2016-06-15T03:54:32.677Z,23.35
2016-06-15T03:55:32.681Z,23.31
2016-06-15T03:56:32.684Z,23.35
2016-06-15T03:57:32.703Z,23.33
2016-06-15T03:58:32.707Z,23.28
2016-06-15T03:59:32.740Z,23.32
2016-06-15T04:00:32.603Z,23.33
2016-06-15T04:01:32.716Z,23.39
2016-06-15T04:02:32.734Z,23.31
2016-06-15T04:03:32.738Z,23.36
2016-06-15T04:04:32.740Z,23.33
2016-06-15T04:05:32.759Z,23.33
2016-06-15T04:06:33.059Z,23.36
2016-06-15T04:07:32.750Z,23.28
2016-06-15T04:08:32.753Z,23.33
2016-06-15T04:09:32.771Z,23.32
2016-06-15T04:10:32.774Z,23.32
2016-06-15T04:11:32.777Z,23.33
2016-06-15T04:12:32.624Z,23.35
2016-06-15T04:13:32.783Z,23.28
2016-06-15T04:14:32.802Z,23.31
2016-06-15T04:15:32.806Z,23.33
2016-06-15T04:16:32.808Z,23.32
2016-06-15T04:17:32.812Z,23.33
2016-06-15T04:18:32.831Z,23.35
2016-06-15T04:19:32.834Z,23.36
2016-06-15T04:20:33.087Z,23.27
2016-06-15T04:21:33.168Z,23.31
2016-06-15T04:22:32.827Z,23.36
2016-06-15T04:23:32.846Z,23.32
2016-06-15T04:24:32.865Z,23.28
2016-06-15T04:25:32.867Z,23.32
2016-06-15T04:26:33.777Z,23.36
2016-06-15T04:27:32.873Z,23.33
2016-06-15T04:28:33.330Z,23.32
2016-06-15T04:29:32.880Z,23.36
2016-06-15T04:30:32.883Z,23.33
2016-06-15T04:31:32.730Z,23.27
2016-06-15T04:32:32.905Z,23.36
2016-06-15T04:33:32.908Z,23.27
2016-06-15T04:34:32.911Z,23.31
2016-06-15T04:35:33.117Z,23.31
2016-06-15T04:36:32.995Z,23.32
2016-06-15T04:37:33.232Z,23.32
2016-06-15T04:38:32.938Z,23.28
2016-06-15T04:39:32.801Z,23.28
2016-06-15T04:40:32.961Z,23.28
2016-06-15T04:41:32.947Z,23.33
2016-06-15T04:42:32.966Z,23.28
2016-06-15T04:43:32.969Z,23.36
2016-06-15T04:44:32.972Z,23.31
2016-06-15T04:45:32.975Z,23.28
2016-06-15T04:46:32.979Z,23.31
2016-06-15T04:47:32.997Z,23.35
2016-06-15T04:48:33.001Z,23.27
2016-06-15T04:49:33.004Z,23.31
2016-06-15T04:50:33.491Z,23.32
2016-06-15T04:51:33.135Z,23.31
2016-06-15T04:52:33.028Z,23.33
2016-06-15T04:53:33.016Z,23.39
2016-06-15T04:54:33.034Z,23.36
2016-06-15T04:55:33.053Z,23.32
2016-06-15T04:56:33.056Z,23.36
2016-06-15T04:57:33.044Z,23.36
2016-06-15T04:58:33.062Z,23.38
2016-06-15T04:59:33.066Z,23.36
2016-06-15T05:00:33.130Z,23.38
2016-06-15T05:01:33.994Z,23.39
2016-06-15T05:02:33.091Z,23.42
2016-06-15T05:03:33.078Z,23.38
2016-06-15T05:04:33.097Z,23.42
2016-06-15T05:05:33.100Z,23.4
2016-06-15T05:06:33.118Z,23.39
2016-06-15T05:07:33.121Z,23.46
2016-06-15T05:08:33.125Z,23.39
2016-06-15T05:09:33.127Z,23.4
2016-06-15T05:10:34.303Z,23.42
2016-06-15T05:11:33.133Z,23.42
2016-06-15T05:12:33.950Z,23.46
2016-06-15T05:13:33.156Z,23.42
2016-06-15T05:14:33.159Z,23.4
2016-06-15T05:15:33.162Z,23.4
2016-06-15T05:16:33.165Z,23.4
2016-06-15T05:17:33.027Z,23.39
2016-06-15T05:18:33.186Z,23.43
2016-06-15T05:19:33.190Z,23.42
2016-06-15T05:20:33.192Z,23.42
2016-06-15T05:21:33.868Z,23.46
2016-06-15T05:22:33.214Z,23.4
2016-06-15T05:23:33.468Z,23.42
2016-06-15T05:24:33.220Z,23.43
2016-06-15T05:25:33.224Z,23.39
2016-06-15T05:26:33.226Z,23.42
2016-06-15T05:27:33.089Z,23.46
2016-06-15T05:28:33.264Z,23.53
2016-06-15T05:29:33.095Z,23.5
2016-06-15T05:30:33.255Z,23.43
2016-06-15T05:31:33.273Z,23.4
2016-06-15T05:32:34.401Z,23.5
2016-06-15T05:33:33.279Z,23.57
2016-06-15T05:34:33.345Z,23.48
2016-06-15T05:35:33.286Z,23.48
2016-06-15T05:36:33.554Z,23.5
2016-06-15T05:37:33.307Z,23.51
2016-06-15T05:38:33.310Z,23.54
2016-06-15T05:39:33.313Z,23.51
2016-06-15T05:40:33.316Z,23.55
2016-06-15T05:41:33.336Z,23.54
2016-06-15T05:42:33.339Z,23.46
2016-06-15T05:43:34.044Z,23.57
2016-06-15T05:44:33.345Z,23.54
2016-06-15T05:45:33.348Z,23.46
2016-06-15T05:46:33.367Z,23.5
2016-06-15T05:47:33.213Z,23.48
2016-06-15T05:48:33.373Z,23.54
2016-06-15T05:49:33.375Z,23.47
2016-06-15T05:50:33.394Z,23.48
2016-06-15T05:51:33.397Z,23.47
2016-06-15T05:52:33.401Z,23.46
2016-06-15T05:53:33.403Z,23.48
2016-06-15T05:54:33.719Z,23.48
2016-06-15T05:55:33.424Z,23.51
2016-06-15T05:56:34.538Z,23.63
2016-06-15T05:57:33.431Z,23.55
2016-06-15T05:58:33.450Z,23.58
2016-06-15T05:59:33.437Z,23.53
2016-06-15T06:00:33.456Z,23.6
2016-06-15T06:01:33.443Z,23.68
2016-06-15T06:02:33.463Z,23.58
2016-06-15T06:03:33.465Z,23.58
2016-06-15T06:04:33.485Z,23.73
2016-06-15T06:05:34.362Z,23.84
2016-06-15T06:06:33.505Z,23.83
2016-06-15T06:07:34.025Z,24.03
2016-06-15T06:08:33.512Z,24.03
2016-06-15T06:09:33.514Z,24.21
2016-06-15T06:10:33.518Z,24.28
2016-06-15T06:11:33.521Z,24.31
2016-06-15T06:12:33.540Z,24.3
2016-06-15T06:13:33.544Z,24.3
2016-06-15T06:14:33.546Z,24.21
2016-06-15T06:15:33.566Z,24.2
2016-06-15T06:16:34.083Z,24.1
2016-06-15T06:17:33.572Z,24.12
2016-06-15T06:18:34.636Z,24.08
2016-06-15T06:19:33.593Z,24.05
2016-06-15T06:20:34.127Z,24.15
2016-06-15T06:21:34.396Z,24.15
2016-06-15T06:22:33.618Z,24.06
2016-06-15T06:23:33.621Z,24.1
2016-06-15T06:24:33.639Z,24.12
2016-06-15T06:25:33.642Z,24.3
2016-06-15T06:26:33.645Z,24.43
2016-06-15T06:27:34.648Z,24.42
2016-06-15T06:28:33.667Z,24.28
2016-06-15T06:29:34.280Z,24.22
2016-06-15T06:30:33.673Z,24.24
2016-06-15T06:31:33.693Z,24.24
2016-06-15T06:32:33.710Z,24.37
2016-06-15T06:33:33.699Z,24.47
2016-06-15T06:34:33.717Z,24.43
2016-06-15T06:35:33.736Z,24.34
2016-06-15T06:36:34.583Z,24.34
2016-06-15T06:37:33.741Z,24.49
2016-06-15T06:38:34.698Z,24.43
2016-06-15T06:39:33.748Z,24.35
2016-06-15T06:40:34.360Z,24.25
2016-06-15T06:41:33.770Z,24.21
2016-06-15T06:42:33.773Z,24.21
2016-06-15T06:43:33.776Z,24.22
2016-06-15T06:44:33.794Z,24.21
2016-06-15T06:45:33.798Z,24.18
2016-06-15T06:46:33.800Z,24.24
2016-06-15T06:47:33.820Z,24.39
2016-06-15T06:48:33.822Z,24.53
2016-06-15T06:49:34.779Z,24.55
2016-06-15T06:50:33.844Z,24.55
2016-06-15T06:51:34.894Z,24.57
2016-06-15T06:52:33.850Z,24.67
2016-06-15T06:53:33.869Z,24.55
2016-06-15T06:54:33.872Z,24.69
2016-06-15T06:55:33.876Z,24.62
2016-06-15T06:56:33.878Z,24.68
2016-06-15T06:57:33.898Z,24.58
2016-06-15T06:58:33.743Z,24.52
2016-06-15T06:59:33.919Z,24.45
2016-06-15T07:00:34.875Z,24.39
2016-06-15T07:01:33.925Z,24.34
2016-06-15T07:02:34.444Z,24.3
2016-06-15T07:03:33.947Z,24.22
2016-06-15T07:04:33.981Z,24.25
2016-06-15T07:05:33.984Z,24.16
2016-06-15T07:06:33.972Z,24.16
2016-06-15T07:07:33.975Z,24.13
2016-06-15T07:08:33.993Z,24.12
2016-06-15T07:09:33.981Z,24.15
2016-06-15T07:10:33.984Z,24.16
2016-06-15T07:11:34.347Z,24.18
2016-06-15T07:12:34.005Z,24.05
2016-06-15T07:13:34.087Z,24.16
2016-06-15T07:14:34.027Z,24.12
2016-06-15T07:15:34.984Z,24.09
2016-06-15T07:16:34.049Z,24.05
2016-06-15T07:17:34.052Z,24.15
2016-06-15T07:18:34.055Z,24.06
2016-06-15T07:19:34.058Z,24.12
2016-06-15T07:20:34.061Z,24.06
2016-06-15T07:21:34.128Z,24.06
2016-06-15T07:22:34.083Z,23.98
2016-06-15T07:23:34.086Z,23.97
2016-06-15T07:24:34.902Z,24.03
2016-06-15T07:25:34.109Z,24.02
2016-06-15T07:26:34.564Z,23.93
2016-06-15T07:27:34.115Z,23.97
2016-06-15T07:28:34.118Z,23.95
2016-06-15T07:29:34.136Z,24.06
2016-06-15T07:30:34.139Z,23.97
2016-06-15T07:31:34.142Z,24.08
2016-06-15T07:32:33.989Z,23.93
2016-06-15T07:33:34.164Z,23.97
2016-06-15T07:34:34.167Z,23.94
2016-06-15T07:35:34.670Z,23.94
2016-06-15T07:36:34.610Z,23.88
2016-06-15T07:37:34.332Z,23.95
2016-06-15T07:38:34.195Z,23.95
2016-06-15T07:39:34.213Z,23.88
2016-06-15T07:40:34.202Z,23.95
2016-06-15T07:41:34.205Z,24.06
2016-06-15T07:42:34.207Z,24
2016-06-15T07:43:34.211Z,24.09
2016-06-15T07:44:34.245Z,24.35
2016-06-15T07:45:35.560Z,24.47
2016-06-15T07:46:35.235Z,24.45
2016-06-15T07:47:34.254Z,24.28
2016-06-15T07:48:34.257Z,24.21
2016-06-15T07:49:34.260Z,24.13
2016-06-15T07:50:34.278Z,24.12
2016-06-15T07:51:34.688Z,24.05
2016-06-15T07:52:34.285Z,24.1
2016-06-15T07:53:34.287Z,24.06
2016-06-15T07:54:34.306Z,24.05
2016-06-15T07:55:35.279Z,24.08
2016-06-15T07:56:34.157Z,23.95
2016-06-15T07:57:35.019Z,24.06
2016-06-15T07:58:34.318Z,24.06
2016-06-15T07:59:34.338Z,24.09
2016-06-15T08:00:34.341Z,24.02
2016-06-15T08:01:34.406Z,24
2016-06-15T08:02:34.409Z,23.97
2016-06-15T08:03:34.365Z,24
2016-06-15T08:04:34.368Z,23.97
2016-06-15T08:05:34.371Z,24.03
2016-06-15T08:06:34.969Z,24.08
2016-06-15T08:07:34.612Z,23.93
2016-06-15T08:08:34.647Z,23.97
2016-06-15T08:09:34.400Z,24
2016-06-15T08:10:35.371Z,23.97
2016-06-15T08:11:34.406Z,24.06
2016-06-15T08:12:34.408Z,24
2016-06-15T08:13:34.428Z,24.03
2016-06-15T08:14:34.462Z,24.02
2016-06-15T08:15:34.434Z,24.02
2016-06-15T08:16:34.609Z,24.02
2016-06-15T08:17:35.549Z,24
2016-06-15T08:18:34.474Z,24.06
2016-06-15T08:19:34.477Z,24
2016-06-15T08:20:44.480Z,24.06
2016-06-15T08:21:36.281Z,24.03
2016-06-15T08:22:35.173Z,23.97
2016-06-15T08:23:34.349Z,24.02
2016-06-15T08:24:34.508Z,24
2016-06-15T08:25:34.496Z,23.94
2016-06-15T08:26:34.530Z,23.95
2016-06-15T08:27:34.517Z,23.9
2016-06-15T08:28:35.567Z,23.94
2016-06-15T08:29:34.539Z,23.95
2016-06-15T08:30:34.448Z,23.98
2016-06-15T08:31:34.561Z,23.93
2016-06-15T08:32:35.127Z,23.91
2016-06-15T08:33:34.551Z,23.93
2016-06-15T08:34:34.555Z,23.87
2016-06-15T08:35:34.574Z,23.87
2016-06-15T08:36:34.952Z,23.83
2016-06-15T08:37:34.595Z,23.83
2016-06-15T08:38:34.613Z,23.93
2016-06-15T08:39:35.148Z,23.8
2016-06-15T08:40:34.604Z,23.9
2016-06-15T08:41:34.623Z,23.9
2016-06-15T08:42:34.610Z,23.88
2016-06-15T08:43:35.629Z,23.9
2016-06-15T08:44:34.632Z,23.91
2016-06-15T08:45:34.636Z,23.88
2016-06-15T08:46:34.638Z,23.87
2016-06-15T08:47:34.658Z,23.91
2016-06-15T08:48:34.660Z,23.87
2016-06-15T08:49:34.663Z,23.79
2016-06-15T08:50:34.713Z,23.8
2016-06-15T08:51:35.778Z,23.91
2016-06-15T08:52:36.360Z,23.85
2016-06-15T08:53:34.675Z,23.88
2016-06-15T08:54:35.491Z,23.93
2016-06-15T08:55:34.697Z,23.91
2016-06-15T08:56:34.700Z,23.91
2016-06-15T08:57:34.703Z,23.9
2016-06-15T08:58:34.722Z,23.93
2016-06-15T08:59:34.740Z,23.88
2016-06-15T09:00:35.056Z,23.85
2016-06-15T09:01:34.841Z,23.8
2016-06-15T09:02:34.750Z,23.88
2016-06-15T09:03:35.753Z,23.93
2016-06-15T09:04:34.803Z,23.93
2016-06-15T09:05:35.463Z,23.83
2016-06-15T09:06:35.137Z,23.87
2016-06-15T09:07:34.906Z,23.94
2016-06-15T09:08:34.785Z,23.87
2016-06-15T09:09:34.787Z,23.91
2016-06-15T09:10:34.806Z,23.9
2016-06-15T09:11:34.794Z,23.95
2016-06-15T09:12:34.796Z,23.85
2016-06-15T09:13:40.546Z,23.91
2016-06-15T09:14:35.701Z,23.93
2016-06-15T09:16:07.549Z,23.93
2016-06-15T09:16:35.330Z,23.98
2016-06-15T09:17:34.833Z,24
2016-06-15T09:18:34.853Z,23.91
2016-06-15T09:19:34.699Z,23.91
2016-06-15T09:20:34.858Z,24.03
2016-06-15T09:21:34.862Z,23.97
2016-06-15T09:22:37.473Z,24.05
2016-06-15T09:23:34.884Z,24
2016-06-15T09:24:34.901Z,24.02
2016-06-15T09:25:35.718Z,24.02
2016-06-15T09:26:34.907Z,24.02
2016-06-15T09:27:35.302Z,24.05
2016-06-15T09:28:34.914Z,24.12
2016-06-15T09:29:34.912Z,24.05
2016-06-15T09:30:34.930Z,24.1
2016-06-15T09:31:34.933Z,24.15
2016-06-15T09:32:34.953Z,24.09
2016-06-15T09:33:34.956Z,24.13
2016-06-15T09:34:34.973Z,24.1
2016-06-15T09:35:34.977Z,24.21
2016-06-15T09:36:35.512Z,24.1
2016-06-15T09:37:34.826Z,24.21
2016-06-15T09:38:35.173Z,24.13
2016-06-15T09:39:34.988Z,24.13
2016-06-15T09:40:34.992Z,24.13
2016-06-15T09:41:34.995Z,24.2
2016-06-15T09:42:34.998Z,24.13
2016-06-15T09:43:35.017Z,24.21
2016-06-15T09:44:35.020Z,24.12
2016-06-15T09:45:35.024Z,24.2
2016-06-15T09:50:03.257Z,24.16
2016-06-15T09:50:49.183Z,24.15
2016-06-15T09:51:35.073Z,24.24
2016-06-15T09:52:49.782Z,24.06
2016-06-15T09:53:49.032Z,24.15
2016-06-15T09:54:49.195Z,24.24
2016-06-15T09:58:53.411Z,24.21
2016-06-15T10:00:21.616Z,24.27
2016-06-15T10:02:16.669Z,24.27
2016-06-15T10:03:02.437Z,24.28
2016-06-15T10:04:02.600Z,24.27
2016-06-15T10:05:03.268Z,24.22
2016-06-15T10:06:02.702Z,24.21
2016-06-15T10:07:02.871Z,24.24
2016-06-15T10:08:03.022Z,24.21
2016-06-15T10:09:02.834Z,24.18
2016-06-15T10:10:02.852Z,24.28
2016-06-15T10:11:02.884Z,24.32
2016-06-15T10:12:02.902Z,24.25
2016-06-15T10:13:02.920Z,24.2
2016-06-15T10:14:02.933Z,24.22
2016-06-15T10:15:02.957Z,24.2
2016-06-15T10:16:25.840Z,24.21
2016-06-15T10:17:02.974Z,24.24
2016-06-15T10:18:19.935Z,24.16
2016-06-15T10:19:03.004Z,24.16
2016-06-15T10:20:02.994Z,24.15
2016-06-15T10:21:02.999Z,24.16
2016-06-15T10:22:03.019Z,24.06
2016-06-15T10:23:03.040Z,24.02
2016-06-15T10:24:03.028Z,24.05
2016-06-15T10:25:03.032Z,24.02
2016-06-15T10:26:03.052Z,24.08
2016-06-15T10:27:04.148Z,24.02
2016-06-15T10:28:03.058Z,24
2016-06-15T10:29:03.062Z,24.03
2016-06-15T10:30:03.080Z,24.06
2016-06-15T10:31:02.927Z,23.97
2016-06-15T10:32:03.087Z,24.03
2016-06-15T10:33:03.090Z,23.97
2016-06-15T10:34:03.110Z,23.94
2016-06-15T10:35:03.113Z,23.9
2016-06-15T10:36:11.616Z,23.94
2016-06-15T10:37:11.745Z,23.94
2016-06-15T10:38:07.935Z,24.03
2016-06-15T10:39:27.031Z,23.93
2016-06-15T10:40:37.348Z,23.98
2016-06-15T10:42:06.026Z,23.98
2016-06-15T10:42:55.713Z,24.05
2016-06-15T10:43:41.466Z,23.97
2016-06-15T10:44:42.594Z,23.98
2016-06-15T10:45:55.535Z,23.88
2016-06-15T10:47:07.728Z,23.97
2016-06-15T10:48:33.747Z,23.97
2016-06-15T10:49:19.157Z,23.87
2016-06-15T10:50:24.191Z,23.91
2016-06-15T10:51:25.116Z,23.94
2016-06-15T10:52:39.229Z,23.93
2016-06-15T10:54:03.044Z,23.83
2016-06-15T10:55:15.472Z,23.94
2016-06-15T10:55:55.613Z,23.91
2016-06-15T10:56:55.366Z,23.94
2016-06-15T10:57:56.337Z,23.93
2016-06-15T10:58:55.231Z,23.93
2016-06-15T10:59:56.141Z,23.79
2016-06-15T11:00:55.394Z,23.8
2016-06-15T11:01:55.397Z,23.88
2016-06-15T11:02:55.447Z,23.93
2016-06-15T11:03:55.419Z,23.94
2016-06-15T11:04:55.422Z,23.85
2016-06-15T11:05:55.425Z,23.85
2016-06-15T11:06:55.741Z,23.94
2016-06-15T11:07:55.728Z,23.84
2016-06-15T11:08:56.278Z,23.88
2016-06-15T11:09:55.297Z,23.94
2016-06-15T11:10:56.002Z,23.94
2016-06-15T11:11:55.475Z,23.88
2016-06-15T11:12:55.494Z,23.87
2016-06-15T11:13:55.497Z,23.94
2016-06-15T11:14:55.327Z,23.98
2016-06-15T11:15:55.503Z,23.93
2016-06-15T11:16:55.506Z,23.87
2016-06-15T11:17:55.509Z,23.87
2016-06-15T11:18:55.513Z,23.95
2016-06-15T11:19:56.483Z,23.95
2016-06-15T11:20:55.534Z,23.98
2016-06-15T11:21:56.256Z,23.91
2016-06-15T11:22:56.430Z,23.91
2016-06-15T11:23:55.558Z,23.93
2016-06-15T11:24:55.562Z,23.98
2016-06-15T11:25:55.564Z,24.03
2016-06-15T11:26:55.584Z,24.06
2016-06-15T11:27:55.571Z,23.98
2016-06-15T11:28:55.589Z,23.97
2016-06-15T11:29:55.593Z,24.06
2016-06-15T11:30:56.377Z,24.02
2016-06-15T11:31:55.599Z,24.08
2016-06-15T11:32:56.102Z,24.03
2016-06-15T11:33:55.605Z,24.05
2016-06-15T11:34:55.623Z,23.5
2016-06-15T11:35:55.627Z,23.17
2016-06-15T11:36:55.661Z,22.09
2016-06-15T11:37:55.913Z,22.39
2016-06-15T11:38:55.666Z,22.61
2016-06-15T11:39:55.498Z,22.42
2016-06-15T11:40:55.657Z,22.14
2016-06-15T11:41:56.208Z,22.45
2016-06-15T11:42:55.664Z,22.79
2016-06-15T11:43:55.964Z,22.95
2016-06-15T11:44:55.670Z,22.47
2016-06-15T11:45:55.673Z,22.83
2016-06-15T11:46:55.677Z,22.49
2016-06-15T11:47:55.679Z,22.67
2016-06-15T11:48:55.682Z,22.65
2016-06-15T11:49:55.686Z,22.45
2016-06-15T11:50:55.703Z,22.42
2016-06-15T11:51:55.723Z,22.02
2016-06-15T11:52:56.367Z,21.9
2016-06-15T11:53:56.010Z,21.52
2016-06-15T11:54:56.107Z,21.47
2016-06-15T11:55:55.734Z,21.61
2016-06-15T11:56:55.707Z,21.83
2016-06-15T11:57:55.725Z,21.38
2016-06-15T11:58:55.728Z,21.43
2016-06-15T11:59:55.717Z,21.64
2016-06-15T12:00:55.734Z,21.69
2016-06-15T12:01:55.723Z,22.1
2016-06-15T12:02:55.726Z,21.9
2016-06-15T12:03:56.323Z,21.68
2016-06-15T12:04:55.747Z,21.68
2016-06-15T12:05:56.046Z,21.52
2016-06-15T12:06:55.738Z,21.42
2016-06-15T12:07:55.818Z,21.25
2016-06-15T12:08:55.744Z,21.16
2016-06-15T12:09:55.731Z,21.49
2016-06-15T12:10:55.750Z,21.64
2016-06-15T12:11:55.753Z,21.64
2016-06-15T12:12:55.756Z,21.72
2016-06-15T12:13:55.790Z,21.88
2016-06-15T12:14:56.278Z,21.84
2016-06-15T12:15:55.750Z,21.84
2016-06-15T12:16:55.955Z,21.9
2016-06-15T12:17:55.755Z,21.59
2016-06-15T12:18:55.759Z,21.42
2016-06-15T12:19:55.762Z,21.27
2016-06-15T12:20:55.765Z,21.61
2016-06-15T12:21:55.753Z,21.99
2016-06-15T12:22:55.770Z,21.84
2016-06-15T12:23:55.602Z,21.25
2016-06-15T12:24:55.762Z,21.43
2016-06-15T12:25:56.405Z,21.4
2016-06-15T12:26:55.768Z,21.62
2016-06-15T12:27:56.224Z,21.77
2016-06-15T12:28:55.789Z,21.91
2016-06-15T12:29:55.778Z,22.25
2016-06-15T12:30:55.781Z,21.9
2016-06-15T12:31:55.784Z,21.64
2016-06-15T12:32:55.786Z,21.74
2016-06-15T12:33:55.789Z,21.84
2016-06-15T12:34:55.793Z,21.67
2016-06-15T12:35:55.796Z,21.62
2016-06-15T12:36:56.360Z,21.52
2016-06-15T12:37:55.661Z,21.13
2016-06-15T12:38:56.101Z,21.06
2016-06-15T12:39:55.651Z,21.09
2016-06-15T12:40:55.796Z,21.53
2016-06-15T12:41:55.798Z,20.73
2016-06-15T12:42:55.801Z,20.72
2016-06-15T12:43:55.804Z,20.39
2016-06-15T12:44:55.808Z,20.95
2016-06-15T12:45:55.795Z,20.85
2016-06-15T12:46:55.814Z,20.16
2016-06-15T12:47:56.426Z,20.54
2016-06-15T12:48:55.803Z,21.01
2016-06-15T12:49:55.979Z,21.32
2016-06-15T12:50:55.810Z,21.37
2016-06-15T12:51:55.813Z,21.46
2016-06-15T12:52:55.816Z,21.37
2016-06-15T12:53:55.835Z,21.9
2016-06-15T12:54:55.808Z,21.58
2016-06-15T12:55:55.653Z,21.61
2016-06-15T12:56:55.672Z,21.67
2016-06-15T12:57:55.816Z,21.72
2016-06-15T12:58:56.445Z,21.65
2016-06-15T12:59:56.276Z,20.97
2016-06-15T13:00:56.169Z,20.98
2016-06-15T13:01:55.829Z,20.72
2016-06-15T13:02:55.832Z,20.62
2016-06-15T13:03:55.835Z,20.72
2016-06-15T13:04:55.853Z,20.8
2016-06-15T13:05:55.841Z,21.27
2016-06-15T13:06:55.844Z,21.16
2016-06-15T13:07:56.097Z,21.01
2016-06-15T13:08:55.850Z,21.37
2016-06-15T13:09:56.416Z,21.47
2016-06-15T13:10:55.840Z,21.52
2016-06-15T13:11:56.124Z,22.07
2016-06-15T13:12:55.831Z,21.58
2016-06-15T13:13:55.833Z,21.34